Time;durP1;ratioP1;P1;durP2;ratioP2;P2;SDS_P1;SDS_P2;PMS_P1;PMS_P2;Temp;Humidity;BMP_temperature;BMP_pressure;BME280_temperature;BME280_humidity;BME280_pressure;Samples;Min_cycle;Max_cycle;Signal;HPM_P1;HPM_P2
2021/06/03 00:02:08;;;;;;;8.48;7.15;;;20.50;69.00;;;;;;5019691;28;20033;-77
2021/06/03 00:04:34;;;;;;;8.32;6.70;;;20.50;69.20;;;;;;5054186;28;20713;-77
2021/06/03 00:07:00;;;;;;;8.60;6.55;;;20.40;69.80;;;;;;5057070;28;20025;-76
2021/06/03 00:09:26;;;;;;;8.48;6.70;;;20.40;69.50;;;;;;5038094;28;20088;-76
2021/06/03 00:11:51;;;;;;;7.93;7.13;;;20.40;69.60;;;;;;5060076;28;20037;-75
2021/06/03 00:14:17;;;;;;;10.45;7.53;;;20.30;69.70;;;;;;5048120;28;20029;-76
2021/06/03 00:16:43;;;;;;;11.82;7.90;;;20.20;70.20;;;;;;5056002;28;20519;-78
2021/06/03 00:19:10;;;;;;;8.15;6.93;;;20.10;70.30;;;;;;5058348;28;20041;-75
2021/06/03 00:21:38;;;;;;;8.90;7.07;;;20.00;71.40;;;;;;5028403;28;20107;-77
2021/06/03 00:24:05;;;;;;;11.50;7.50;;;20.00;70.90;;;;;;5046907;28;20028;-76
2021/06/03 00:26:31;;;;;;;10.43;6.82;;;20.00;71.00;;;;;;5049978;28;20033;-77
2021/06/03 00:28:57;;;;;;;9.00;6.90;;;20.00;71.00;;;;;;5056316;28;20044;-77
2021/06/03 00:31:22;;;;;;;8.13;7.30;;;20.10;71.00;;;;;;5039178;28;20507;-77
2021/06/03 00:33:48;;;;;;;8.40;7.57;;;20.00;71.00;;;;;;5020687;28;20042;-77
2021/06/03 00:36:13;;;;;;;7.88;7.07;;;20.00;71.30;;;;;;5040497;28;20059;-76
2021/06/03 00:38:40;;;;;;;8.65;7.22;;;20.00;71.40;;;;;;5039870;28;20114;-76
2021/06/03 00:41:07;;;;;;;8.82;7.13;;;20.00;71.30;;;;;;5057314;28;20033;-76
2021/06/03 00:43:34;;;;;;;9.88;7.70;;;20.00;71.30;;;;;;5054001;28;20033;-77
2021/06/03 00:46:00;;;;;;;8.15;7.30;;;20.00;71.50;;;;;;5033058;28;20477;-76
2021/06/03 00:48:26;;;;;;;9.25;7.53;;;20.00;71.40;;;;;;5056113;28;20059;-76
2021/06/03 00:50:55;;;;;;;8.40;7.50;;;20.10;71.30;;;;;;5042202;28;20041;-76
2021/06/03 00:53:20;;;;;;;7.97;7.20;;;20.00;71.50;;;;;;5031383;28;20491;-76
2021/06/03 00:55:52;;;;;;;9.38;7.53;;;20.00;71.70;;;;;;5043161;28;20045;-75
2021/06/03 00:58:18;;;;;;;8.80;7.72;;;19.90;71.80;;;;;;5054593;28;20480;-75
2021/06/03 01:00:43;;;;;;;10.10;7.35;;;19.90;71.90;;;;;;5056840;28;20044;-76
2021/06/03 01:03:10;;;;;;;8.85;7.30;;;19.90;72.00;;;;;;5037470;28;20033;-75
2021/06/03 01:05:59;;;;;;;8.52;7.65;;;19.90;72.10;;;;;;5040715;28;20484;-75
2021/06/03 01:08:30;;;;;;;7.95;7.25;;;19.90;72.00;;;;;;5046508;28;20116;-75
2021/06/03 01:11:20;;;;;;;9.75;8.75;;;19.90;72.00;;;;;;5055479;28;20481;-76
2021/06/03 01:13:53;;;;;;;8.68;7.80;;;19.80;72.10;;;;;;5048285;28;20428;-75
2021/06/03 01:16:20;;;;;;;9.68;7.53;;;19.80;72.40;;;;;;5042708;28;20037;-77
2021/06/03 01:18:47;;;;;;;9.10;8.05;;;19.80;72.50;;;;;;5037199;28;20029;-77
2021/06/03 01:21:18;;;;;;;17.90;10.65;;;19.80;72.60;;;;;;5054616;28;20060;-78
2021/06/03 01:23:57;;;;;;;10.35;8.35;;;19.70;72.60;;;;;;5042559;28;20037;-76
2021/06/03 01:26:24;;;;;;;11.63;8.82;;;19.70;72.70;;;;;;5055602;28;20437;-77
2021/06/03 01:28:50;;;;;;;9.38;8.18;;;19.60;73.00;;;;;;5055738;28;20037;-77
2021/06/03 01:31:16;;;;;;;8.73;7.57;;;19.60;73.20;;;;;;5022090;28;20037;-77
2021/06/03 01:33:42;;;;;;;8.65;7.80;;;19.60;73.30;;;;;;5033489;28;20063;-76
2021/06/03 01:36:12;;;;;;;9.32;8.07;;;19.60;73.20;;;;;;5064068;28;20029;-76
2021/06/03 01:38:40;;;;;;;8.73;7.82;;;19.50;73.20;;;;;;5029742;28;20029;-77
2021/06/03 01:41:08;;;;;;;8.80;7.90;;;19.40;73.20;;;;;;5030769;28;20110;-77
2021/06/03 01:43:36;;;;;;;10.13;7.80;;;19.40;73.20;;;;;;5029547;28;20026;-77
2021/06/03 01:46:03;;;;;;;12.40;8.38;;;19.40;73.20;;;;;;5030995;28;20032;-77
2021/06/03 01:48:28;;;;;;;9.63;7.70;;;19.40;74.20;;;;;;5040423;28;20068;-77
2021/06/03 01:50:57;;;;;;;9.07;8.18;;;19.30;73.70;;;;;;5013237;28;20050;-78
2021/06/03 01:53:24;;;;;;;8.45;7.65;;;19.30;73.90;;;;;;5047888;28;20111;-77
2021/06/03 01:55:50;;;;;;;10.45;8.07;;;19.30;73.90;;;;;;5007449;28;20033;-78
2021/06/03 01:58:16;;;;;;;8.77;7.90;;;19.30;74.00;;;;;;5020355;28;20114;-77
2021/06/03 02:00:44;;;;;;;8.68;7.78;;;19.20;74.30;;;;;;5053180;28;20033;-79
2021/06/03 02:03:09;;;;;;;10.77;8.07;;;19.20;74.30;;;;;;5021088;28;20512;-79
2021/06/03 02:05:35;;;;;;;8.75;7.85;;;19.10;74.40;;;;;;5020704;28;20064;-77
2021/06/03 02:08:02;;;;;;;9.10;8.00;;;19.10;75.20;;;;;;5039531;28;20033;-79
2021/06/03 02:10:29;;;;;;;8.43;7.63;;;19.10;74.60;;;;;;5044725;28;20079;-77
2021/06/03 02:13:16;;;;;;;11.65;8.80;;;19.10;74.70;;;;;;5030084;28;20045;-78
2021/06/03 02:15:51;;;;;;;8.35;7.55;;;19.10;74.70;;;;;;5034834;28;20037;-78
2021/06/03 02:18:20;;;;;;;10.25;8.35;;;19.00;74.60;;;;;;5056179;28;20029;-77
2021/06/03 02:20:47;;;;;;;8.80;7.90;;;19.00;74.90;;;;;;5019728;28;20029;-77
2021/06/03 02:23:17;;;;;;;9.00;7.88;;;18.90;75.10;;;;;;5035982;28;20053;-78
2021/06/03 02:25:43;;;;;;;9.60;8.43;;;18.80;75.30;;;;;;5028975;28;20473;-78
2021/06/03 02:28:10;;;;;;;9.45;8.40;;;18.80;75.50;;;;;;5053423;28;20058;-78
2021/06/03 02:30:36;;;;;;;11.02;8.02;;;18.80;75.50;;;;;;5042810;28;20048;-76
2021/06/03 02:33:02;;;;;;;11.50;8.32;;;18.80;75.50;;;;;;5035411;28;20037;-75
2021/06/03 02:35:28;;;;;;;9.27;7.75;;;18.70;75.60;;;;;;5052831;28;20115;-76
2021/06/03 02:37:54;;;;;;;9.18;8.18;;;18.70;75.60;;;;;;5027724;28;20086;-77
2021/06/03 02:40:27;;;;;;;8.80;7.90;;;18.70;75.50;;;;;;5036730;28;20033;-76
2021/06/03 02:42:54;;;;;;;10.50;8.10;;;18.60;76.50;;;;;;5024737;28;20037;-76
2021/06/03 02:45:25;;;;;;;8.75;7.95;;;18.60;76.00;;;;;;5051969;28;20290;-76
2021/06/03 02:47:52;;;;;;;9.80;8.60;;;18.60;76.00;;;;;;5037364;28;20029;-76
2021/06/03 02:50:21;;;;;;;11.57;8.10;;;18.60;76.00;;;;;;5005789;28;20442;-77
2021/06/03 02:52:47;;;;;;;12.77;8.48;;;18.60;76.10;;;;;;5019881;28;20049;-78
2021/06/03 02:55:15;;;;;;;10.00;8.32;;;18.50;76.20;;;;;;5048674;28;20035;-77
2021/06/03 02:57:42;;;;;;;9.60;8.23;;;18.40;76.50;;;;;;5045991;28;20128;-76
2021/06/03 03:00:11;;;;;;;9.20;8.30;;;18.40;76.40;;;;;;5043032;28;20025;-78
2021/06/03 03:02:37;;;;;;;8.70;7.82;;;18.50;76.50;;;;;;5041324;28;20032;-79
2021/06/03 03:05:03;;;;;;;9.55;8.55;;;18.50;76.50;;;;;;5036472;28;20025;-78
2021/06/03 03:07:31;;;;;;;11.70;8.95;;;18.40;76.60;;;;;;5048439;28;20056;-78
2021/06/03 03:09:57;;;;;;;9.43;8.48;;;18.40;76.50;;;;;;5020075;28;20029;-77
2021/06/03 03:12:23;;;;;;;8.98;8.07;;;18.40;76.70;;;;;;5031711;28;20021;-77
2021/06/03 03:14:48;;;;;;;11.30;7.95;;;18.40;76.60;;;;;;5020385;28;20029;-77
2021/06/03 03:17:14;;;;;;;8.70;7.22;;;18.40;77.40;;;;;;5053270;28;20063;-75
2021/06/03 03:19:39;;;;;;;7.97;7.25;;;18.40;78.30;;;;;;4999939;28;20070;-75
2021/06/03 03:22:05;;;;;;;9.15;8.25;;;18.60;78.10;;;;;;5028469;28;20400;-76
2021/06/03 03:24:31;;;;;;;9.45;8.57;;;18.80;77.20;;;;;;5005672;28;20048;-76
2021/06/03 03:26:59;;;;;;;8.77;7.60;;;18.90;76.40;;;;;;5054252;28;20029;-76
2021/06/03 03:29:25;;;;;;;8.93;8.02;;;19.00;75.60;;;;;;5055872;28;20037;-76
2021/06/03 03:31:50;;;;;;;11.15;8.65;;;19.00;75.40;;;;;;5055126;28;20040;-76
2021/06/03 03:34:16;;;;;;;11.02;7.85;;;19.00;75.20;;;;;;5000847;28;20037;-76
2021/06/03 03:36:41;;;;;;;8.35;7.45;;;19.00;75.20;;;;;;5016580;28;20493;-77
2021/06/03 03:39:08;;;;;;;10.20;8.52;;;19.10;74.90;;;;;;5040589;28;20041;-75
2021/06/03 03:41:34;;;;;;;10.70;8.18;;;19.10;74.60;;;;;;5055196;28;20534;-77
2021/06/03 03:44:00;;;;;;;10.30;8.57;;;19.10;74.70;;;;;;5045210;28;20024;-78
2021/06/03 03:46:25;;;;;;;9.38;8.43;;;19.10;74.70;;;;;;5038734;28;20408;-76
2021/06/03 03:48:51;;;;;;;9.65;8.30;;;19.10;74.80;;;;;;5036580;28;20033;-76
2021/06/03 03:51:17;;;;;;;9.25;8.32;;;19.00;74.70;;;;;;5036519;28;20033;-77
2021/06/03 03:53:43;;;;;;;8.93;8.02;;;19.10;74.50;;;;;;5021258;28;20057;-76
2021/06/03 03:56:11;;;;;;;10.48;8.27;;;19.10;74.60;;;;;;5012449;28;20049;-76
2021/06/03 03:58:39;;;;;;;9.00;8.10;;;19.20;74.50;;;;;;5035542;28;20029;-77
2021/06/03 04:01:05;;;;;;;9.05;7.63;;;19.20;74.60;;;;;;5018890;28;20037;-77
2021/06/03 04:03:31;;;;;;;8.40;7.57;;;19.20;74.40;;;;;;5048789;28;20413;-76
2021/06/03 04:05:57;;;;;;;9.32;8.40;;;19.20;74.40;;;;;;5037755;28;20029;-77
2021/06/03 04:08:23;;;;;;;10.07;8.57;;;19.20;74.60;;;;;;5052465;28;20539;-76
2021/06/03 04:10:49;;;;;;;9.07;8.18;;;19.20;74.60;;;;;;5053463;28;20021;-76
2021/06/03 04:13:15;;;;;;;9.68;8.57;;;19.20;74.50;;;;;;5026411;28;20037;-77
2021/06/03 04:15:40;;;;;;;11.02;8.20;;;19.20;74.20;;;;;;5043493;28;20033;-76
2021/06/03 04:18:06;;;;;;;8.65;7.43;;;19.30;74.40;;;;;;5004180;28;20038;-76
2021/06/03 04:20:33;;;;;;;13.02;8.90;;;19.30;73.60;;;;;;5047930;28;20108;-76
2021/06/03 04:22:59;;;;;;;10.80;9.00;;;19.30;74.30;;;;;;5043276;28;20036;-76
2021/06/03 04:25:25;;;;;;;10.15;8.70;;;19.20;74.20;;;;;;5055820;28;20017;-75
2021/06/03 04:27:51;;;;;;;10.85;8.20;;;19.20;74.30;;;;;;5004081;28;20137;-76
2021/06/03 04:30:20;;;;;;;11.88;8.48;;;19.10;74.00;;;;;;5057328;28;20087;-76
2021/06/03 04:32:45;;;;;;;10.93;8.20;;;19.10;74.30;;;;;;5015649;28;20116;-77
2021/06/03 04:35:12;;;;;;;8.88;7.97;;;19.10;74.30;;;;;;5025249;28;20064;-75
2021/06/03 04:37:38;;;;;;;9.82;8.23;;;19.20;74.30;;;;;;5037351;28;20051;-76
2021/06/03 04:40:05;;;;;;;11.20;8.55;;;19.20;74.30;;;;;;5022295;28;20101;-77
2021/06/03 04:42:31;;;;;;;9.10;8.20;;;19.30;74.10;;;;;;5042811;28;20021;-75
2021/06/03 04:44:56;;;;;;;9.80;8.80;;;19.30;73.80;;;;;;5058608;28;20036;-75
2021/06/03 04:47:22;;;;;;;9.25;8.25;;;19.30;73.50;;;;;;5025275;28;20037;-76
2021/06/03 04:49:48;;;;;;;10.10;8.95;;;19.20;73.80;;;;;;5025255;28;20044;-76
2021/06/03 04:52:25;;;;;;;10.02;8.48;;;19.20;73.90;;;;;;5022412;28;20551;-77
2021/06/03 04:54:57;;;;;;;9.48;8.48;;;19.20;74.20;;;;;;5009894;28;20036;-77
2021/06/03 04:57:23;;;;;;;8.93;8.02;;;19.20;74.00;;;;;;5040969;28;20071;-78
2021/06/03 04:59:48;;;;;;;9.95;9.00;;;19.30;73.80;;;;;;5056192;28;20033;-77
2021/06/03 05:02:14;;;;;;;9.63;8.70;;;19.20;73.80;;;;;;5038774;28;20037;-77
2021/06/03 05:04:40;;;;;;;8.90;8.00;;;19.10;74.20;;;;;;5045028;28;20075;-77
2021/06/03 05:07:05;;;;;;;8.75;7.95;;;19.20;74.30;;;;;;5039353;28;20039;-77
2021/06/03 05:09:31;;;;;;;10.85;9.52;;;19.20;74.00;;;;;;5044919;28;20040;-78
2021/06/03 05:11:57;;;;;;;11.05;8.73;;;19.30;74.00;;;;;;5057890;28;20055;-78
2021/06/03 05:14:23;;;;;;;9.27;8.38;;;19.30;73.80;;;;;;5042329;28;20418;-77
2021/06/03 05:16:49;;;;;;;11.18;8.07;;;19.40;73.90;;;;;;5057946;28;20056;-79
2021/06/03 05:19:14;;;;;;;10.40;8.55;;;19.40;73.90;;;;;;5017239;28;20048;-77
2021/06/03 05:21:42;;;;;;;9.60;8.52;;;19.40;73.70;;;;;;5040306;28;20055;-76
2021/06/03 05:24:08;;;;;;;10.73;9.20;;;19.50;73.60;;;;;;5042739;28;20048;-78
2021/06/03 05:26:34;;;;;;;9.65;8.65;;;19.50;73.40;;;;;;5009463;28;20108;-76
2021/06/03 05:28:59;;;;;;;12.40;8.48;;;19.40;73.90;;;;;;5039339;28;20057;-77
2021/06/03 05:31:25;;;;;;;8.88;7.97;;;19.40;73.90;;;;;;5006282;28;20033;-77
2021/06/03 05:33:50;;;;;;;10.60;8.15;;;19.50;73.80;;;;;;5043418;28;20037;-78
2021/06/03 05:36:16;;;;;;;9.23;8.32;;;19.60;73.60;;;;;;5057471;28;20045;-77
2021/06/03 05:38:41;;;;;;;11.18;9.93;;;19.70;73.40;;;;;;5045077;28;20066;-78
2021/06/03 05:41:07;;;;;;;11.25;8.88;;;19.80;73.10;;;;;;5019055;28;20026;-78
2021/06/03 05:43:33;;;;;;;9.43;8.38;;;19.90;73.10;;;;;;5008501;28;20128;-79
2021/06/03 05:45:58;;;;;;;11.55;8.43;;;20.00;73.20;;;;;;5020852;28;20057;-78
2021/06/03 05:48:24;;;;;;;8.63;7.43;;;20.00;72.90;;;;;;5007072;28;20033;-78
2021/06/03 05:50:49;;;;;;;10.10;8.82;;;20.20;72.80;;;;;;5003166;28;20056;-79
2021/06/03 05:53:15;;;;;;;9.27;8.20;;;20.20;72.50;;;;;;5016037;28;20103;-79
2021/06/03 05:55:42;;;;;;;9.60;8.60;;;20.40;72.40;;;;;;5000110;28;20040;-79
2021/06/03 05:58:07;;;;;;;9.77;8.38;;;20.40;72.20;;;;;;5039074;28;20037;-79
2021/06/03 06:00:34;;;;;;;9.82;7.43;;;20.50;72.20;;;;;;5007062;28;20128;-79
2021/06/03 06:03:13;;;;;;;10.60;8.40;;;20.60;72.20;;;;;;5025650;28;20025;-78
2021/06/03 06:08:28;;;;;;;9.90;7.93;;;20.70;71.90;;;;;;5038163;28;20033;-81
2021/06/03 06:10:54;;;;;;;10.32;7.88;;;20.80;71.30;;;;;;5049700;28;20040;-79
2021/06/03 06:13:21;;;;;;;9.35;8.27;;;21.00;71.00;;;;;;5006878;28;20037;-78
2021/06/03 06:15:47;;;;;;;8.45;7.63;;;21.10;70.50;;;;;;5012069;28;20029;-78
2021/06/03 06:18:13;;;;;;;10.57;7.75;;;21.20;70.10;;;;;;5054782;28;20080;-79
2021/06/03 06:20:39;;;;;;;10.80;8.13;;;21.30;69.90;;;;;;5040005;28;20033;-79
2021/06/03 06:23:08;;;;;;;10.15;7.95;;;21.30;69.60;;;;;;5025832;28;20053;-79
2021/06/03 06:25:36;;;;;;;10.77;7.47;;;21.40;69.60;;;;;;5024201;28;20527;-79
2021/06/03 06:28:03;;;;;;;8.02;6.95;;;21.40;69.70;;;;;;5065979;28;20063;-80
2021/06/03 06:30:29;;;;;;;8.40;6.65;;;21.50;68.70;;;;;;5039130;28;20063;-80
2021/06/03 06:32:55;;;;;;;8.90;6.88;;;21.60;68.30;;;;;;5041737;28;20037;-80
2021/06/03 06:35:24;;;;;;;12.13;8.10;;;21.60;68.00;;;;;;5024323;28;20056;-78
2021/06/03 06:37:50;;;;;;;10.80;6.85;;;21.70;67.40;;;;;;5056430;28;20029;-80
2021/06/03 06:40:15;;;;;;;8.45;6.28;;;21.50;67.60;;;;;;5046715;28;20116;-78
2021/06/03 06:42:48;;;;;;;10.85;6.60;;;21.50;67.40;;;;;;5031431;28;20108;-79
2021/06/03 06:45:14;;;;;;;7.50;6.70;;;21.60;67.30;;;;;;5028977;28;20102;-79
2021/06/03 06:47:39;;;;;;;8.27;6.28;;;21.70;67.10;;;;;;5046391;28;20380;-79
2021/06/03 06:50:16;;;;;;;9.75;6.47;;;21.80;66.80;;;;;;5015401;28;20045;-79
2021/06/03 06:52:42;;;;;;;8.75;7.05;;;21.90;66.80;;;;;;5029618;28;20032;-78
2021/06/03 06:55:09;;;;;;;8.45;6.20;;;21.90;66.80;;;;;;5020260;28;20029;-78
2021/06/03 06:57:41;;;;;;;9.88;6.68;;;22.00;66.40;;;;;;5011120;28;20041;-78
2021/06/03 07:00:11;;;;;;;8.05;6.38;;;22.00;65.10;;;;;;5013951;28;20024;-78
2021/06/03 07:02:39;;;;;;;6.90;6.22;;;22.10;63.90;;;;;;5045151;28;20037;-80
2021/06/03 07:05:09;;;;;;;7.57;5.95;;;22.10;63.70;;;;;;5039083;28;20050;-79
2021/06/03 07:07:41;;;;;;;8.75;6.10;;;22.30;63.60;;;;;;5057621;28;20037;-79
2021/06/03 07:10:08;;;;;;;7.82;6.80;;;22.40;63.70;;;;;;5043209;28;20041;-79
2021/06/03 07:12:34;;;;;;;6.72;6.03;;;22.50;63.50;;;;;;5057071;28;20032;-79
2021/06/03 07:15:00;;;;;;;6.43;5.80;;;22.60;63.40;;;;;;5029290;28;20041;-80
2021/06/03 07:17:26;;;;;;;10.60;7.00;;;22.70;63.00;;;;;;5023347;28;20510;-80
2021/06/03 07:19:52;;;;;;;7.10;6.10;;;22.80;62.90;;;;;;5022031;28;20492;-79
2021/06/03 07:22:18;;;;;;;8.88;6.35;;;22.80;62.90;;;;;;5032228;28;20044;-79
2021/06/03 07:24:44;;;;;;;10.25;6.00;;;23.00;62.20;;;;;;4997632;28;20128;-79
2021/06/03 07:27:11;;;;;;;6.22;5.57;;;23.20;61.00;;;;;;5019124;28;20037;-79
2021/06/03 07:29:36;;;;;;;7.22;5.95;;;23.20;60.50;;;;;;5048490;28;20489;-79
2021/06/03 07:32:04;;;;;;;8.90;5.82;;;23.30;60.80;;;;;;4996242;28;20045;-78
2021/06/03 07:34:30;;;;;;;6.75;5.85;;;23.40;60.60;;;;;;5013275;28;20512;-77
2021/06/03 07:36:56;;;;;;;8.43;6.03;;;23.50;60.60;;;;;;5013354;28;20025;-78
2021/06/03 07:39:22;;;;;;;9.80;5.90;;;23.50;60.70;;;;;;5051381;28;20045;-78
2021/06/03 07:41:50;;;;;;;8.95;5.55;;;23.60;59.80;;;;;;5027279;28;20029;-78
2021/06/03 07:44:16;;;;;;;6.20;5.45;;;23.60;58.50;;;;;;5043311;28;20033;-77
2021/06/03 07:46:42;;;;;;;7.88;5.57;;;23.60;58.10;;;;;;5039823;28;20150;-76
2021/06/03 07:49:12;;;;;;;5.75;5.10;;;23.60;57.50;;;;;;5020451;28;20508;-77
2021/06/03 07:51:37;;;;;;;7.95;5.47;;;23.60;57.40;;;;;;5025187;28;20091;-78
2021/06/03 07:54:03;;;;;;;8.77;5.20;;;23.60;57.30;;;;;;5028456;28;20034;-78
2021/06/03 07:56:29;;;;;;;6.55;5.38;;;23.70;57.70;;;;;;5029851;28;20033;-79
2021/06/03 07:58:55;;;;;;;6.20;5.57;;;23.90;57.30;;;;;;5041419;28;20513;-77
2021/06/03 08:01:20;;;;;;;9.07;5.78;;;24.00;57.00;;;;;;5025525;28;20128;-78
2021/06/03 08:03:46;;;;;;;7.55;5.80;;;24.10;57.50;;;;;;5036370;28;20041;-78
2021/06/03 08:06:11;;;;;;;9.77;5.70;;;24.30;56.40;;;;;;5006122;28;20033;-78
2021/06/03 08:08:37;;;;;;;8.00;5.25;;;24.30;56.60;;;;;;5025965;28;20107;-78
2021/06/03 08:11:07;;;;;;;9.95;5.50;;;24.40;56.20;;;;;;5050675;28;20029;-79
2021/06/03 08:13:48;;;;;;;8.05;5.95;;;24.50;56.60;;;;;;5051789;28;20025;-77
2021/06/03 08:16:14;;;;;;;10.32;6.88;;;24.60;56.30;;;;;;4993705;28;20057;-76
2021/06/03 08:18:39;;;;;;;12.02;7.60;;;24.80;56.30;;;;;;5050757;28;20080;-76
2021/06/03 08:21:09;;;;;;;7.38;5.75;;;25.00;56.00;;;;;;5028421;28;20083;-77
2021/06/03 08:23:34;;;;;;;6.68;5.32;;;25.00;55.70;;;;;;5056653;28;20029;-77
2021/06/03 08:26:03;;;;;;;7.47;5.60;;;25.00;55.70;;;;;;4999253;28;20071;-81
2021/06/03 08:28:29;;;;;;;10.45;5.22;;;25.00;55.60;;;;;;5058731;28;20108;-77
2021/06/03 08:30:56;;;;;;;16.73;6.88;;;25.00;55.80;;;;;;5057020;28;20120;-77
2021/06/03 08:33:23;;;;;;;6.82;5.43;;;25.00;55.70;;;;;;5057049;28;20056;-77
2021/06/03 08:35:48;;;;;;;13.13;6.03;;;25.00;55.60;;;;;;5056804;28;20028;-77
2021/06/03 08:38:14;;;;;;;9.30;6.20;;;25.20;55.50;;;;;;5050965;28;20037;-78
2021/06/03 08:40:49;;;;;;;9.90;5.43;;;25.30;55.30;;;;;;5058887;28;20032;-78
2021/06/03 08:43:15;;;;;;;7.38;5.43;;;25.40;54.60;;;;;;5044625;28;20302;-76
2021/06/03 08:45:44;;;;;;;8.70;5.85;;;25.60;54.40;;;;;;5028419;28;20029;-78
2021/06/03 08:48:11;;;;;;;7.68;5.28;;;25.60;54.30;;;;;;5048478;28;20037;-77
2021/06/03 08:50:40;;;;;;;8.88;5.00;;;25.70;54.50;;;;;;5017948;28;20429;-76
2021/06/03 08:53:07;;;;;;;6.47;5.07;;;25.90;54.20;;;;;;5021780;28;20033;-78
2021/06/03 08:58:21;;;;;;;8.70;5.50;;;25.90;53.70;;;;;;5022036;28;20029;-78
2021/06/03 09:00:46;;;;;;;7.40;5.13;;;26.00;53.90;;;;;;5038474;28;20049;-79
2021/06/03 09:03:14;;;;;;;9.95;5.43;;;26.10;53.60;;;;;;5036746;28;20489;-79
2021/06/03 09:05:41;;;;;;;6.13;5.53;;;26.20;53.30;;;;;;5065366;28;20048;-78
2021/06/03 09:08:21;;;;;;;10.18;5.43;;;26.40;53.30;;;;;;5047571;28;20128;-77
2021/06/03 09:10:52;;;;;;;5.43;4.93;;;26.60;53.20;;;;;;5045305;28;20025;-76
2021/06/03 09:13:22;;;;;;;14.65;5.75;;;26.80;53.00;;;;;;5058974;28;20050;-77
2021/06/03 09:15:54;;;;;;;6.10;5.25;;;26.90;52.60;;;;;;5038998;28;20033;-76
2021/06/03 09:18:58;;;;;;;7.55;5.60;;;26.80;52.40;;;;;;5002315;28;20080;-77
2021/06/03 09:21:29;;;;;;;12.13;5.77;;;26.90;52.40;;;;;;5027099;28;20780;-76
2021/06/03 09:24:05;;;;;;;7.05;5.13;;;26.80;53.00;;;;;;5048546;28;20287;-77
2021/06/03 09:26:37;;;;;;;8.98;5.07;;;26.70;53.20;;;;;;5052251;28;20024;-76
2021/06/03 09:29:04;;;;;;;10.45;5.50;;;26.80;52.80;;;;;;5055705;28;20029;-77
2021/06/03 09:31:36;;;;;;;9.73;5.40;;;26.80;52.40;;;;;;5043806;28;20040;-77
2021/06/03 09:34:08;;;;;;;8.32;6.68;;;26.90;52.40;;;;;;5045464;28;20435;-77
2021/06/03 09:36:40;;;;;;;7.30;5.00;;;26.90;51.90;;;;;;5055799;28;20116;-78
2021/06/03 09:39:35;;;;;;;9.70;5.13;;;26.80;51.80;;;;;;5038600;28;20062;-77
2021/06/03 09:42:18;;;;;;;8.50;5.00;;;27.00;51.30;;;;;;5056813;28;20021;-78
2021/06/03 09:44:49;;;;;;;10.05;5.47;;;26.90;51.80;;;;;;5030825;28;20054;-77
2021/06/03 09:47:24;;;;;;;8.85;6.13;;;26.90;52.30;;;;;;5028671;28;20513;-78
2021/06/03 09:49:52;;;;;;;11.75;6.22;;;27.00;52.40;;;;;;5031141;28;20096;-77
2021/06/03 09:52:23;;;;;;;6.07;5.28;;;27.10;51.50;;;;;;5056472;28;20481;-77
2021/06/03 09:55:00;;;;;;;6.45;5.78;;;27.10;51.60;;;;;;5055811;28;20590;-77
2021/06/03 09:57:31;;;;;;;7.65;5.50;;;27.20;51.60;;;;;;5054096;28;20044;-77
2021/06/03 10:00:04;;;;;;;8.15;5.45;;;27.20;52.70;;;;;;5057057;28;20044;-77
2021/06/03 10:02:32;;;;;;;12.90;6.25;;;27.30;53.10;;;;;;5022557;28;20059;-76
2021/06/03 10:05:00;;;;;;;7.78;5.43;;;27.10;52.60;;;;;;5055968;28;20037;-77
2021/06/03 10:07:27;;;;;;;12.60;5.60;;;27.20;52.40;;;;;;5044655;28;20052;-76
2021/06/03 10:10:06;;;;;;;9.63;5.32;;;27.30;52.50;;;;;;5035474;28;20033;-77
2021/06/03 10:12:52;;;;;;;8.52;5.90;;;27.30;52.30;;;;;;5037620;28;20032;-76
2021/06/03 10:15:20;;;;;;;9.75;5.60;;;27.40;52.50;;;;;;5038900;28;20650;-77
2021/06/03 10:17:54;;;;;;;7.60;5.10;;;27.60;52.30;;;;;;5052795;28;20025;-77
2021/06/03 10:20:44;;;;;;;6.68;5.30;;;27.70;51.80;;;;;;5029699;28;20437;-77
2021/06/03 10:23:30;;;;;;;6.18;5.57;;;27.90;51.00;;;;;;5046981;28;20037;-77
2021/06/03 10:26:03;;;;;;;7.13;4.70;;;28.00;49.80;;;;;;5050474;28;20120;-78
2021/06/03 10:28:29;;;;;;;10.73;5.45;;;27.90;50.00;;;;;;5039454;28;20063;-77
2021/06/03 10:30:57;;;;;;;8.00;4.95;;;27.90;50.20;;;;;;5036785;28;20045;-77
2021/06/03 10:33:25;;;;;;;7.00;4.80;;;28.10;50.30;;;;;;5034200;28;20087;-78
2021/06/03 10:35:54;;;;;;;10.68;5.00;;;28.20;48.80;;;;;;5042607;28;20036;-77
2021/06/03 10:38:21;;;;;;;8.20;5.53;;;28.00;48.30;;;;;;5056673;28;20505;-77
2021/06/03 10:40:49;;;;;;;6.05;4.80;;;28.00;48.70;;;;;;5030164;28;20034;-77
2021/06/03 10:43:15;;;;;;;8.90;4.75;;;28.00;48.80;;;;;;5049169;28;20063;-77
2021/06/03 10:45:42;;;;;;;6.70;5.15;;;28.10;48.70;;;;;;5054367;28;20036;-77
2021/06/03 10:48:08;;;;;;;5.15;4.60;;;28.20;49.30;;;;;;5057849;28;20036;-77
2021/06/03 10:50:41;;;;;;;7.15;4.55;;;28.40;48.60;;;;;;5036920;28;20049;-77
2021/06/03 10:53:19;;;;;;;8.52;4.88;;;28.50;47.90;;;;;;5039383;28;20365;-79
2021/06/03 10:55:53;;;;;;;7.10;5.00;;;28.50;47.30;;;;;;5026238;28;20086;-78
2021/06/03 10:58:31;;;;;;;6.88;4.60;;;28.50;46.60;;;;;;5032474;28;20033;-78
2021/06/03 11:01:10;;;;;;;7.03;4.80;;;28.30;46.70;;;;;;5041254;28;20029;-80
2021/06/03 11:03:51;;;;;;;9.38;5.65;;;28.30;46.70;;;;;;5053468;28;20468;-80
2021/06/03 11:24:50;;;;;;;6.10;4.57;;;28.50;44.00;;;;;;4976495;28;20188;-80
2021/06/03 11:28:07;;;;;;;;;;;;;;;;;;;;;
2021/06/03 11:30:55;;;;;;;5.85;3.85;;;28.40;43.30;;;;;;5055204;28;20029;-80
2021/06/03 11:33:23;;;;;;;5.82;4.20;;;28.30;43.60;;;;;;5035243;28;20040;-79
2021/06/03 11:35:52;;;;;;;5.03;4.03;;;28.40;43.70;;;;;;5056143;28;20037;-79
2021/06/03 11:38:40;;;;;;;7.10;4.57;;;28.60;44.10;;;;;;5007897;28;20398;-79
2021/06/03 11:41:39;;;;;;;6.82;4.70;;;28.70;44.20;;;;;;5036716;28;20430;-78
2021/06/03 11:44:07;;;;;;;6.35;4.20;;;28.80;43.40;;;;;;5040251;28;20040;-80
2021/06/03 11:46:51;;;;;;;6.50;4.85;;;28.90;43.40;;;;;;5022831;28;20067;-80
2021/06/03 11:49:35;;;;;;;;;;;29.00;43.30;;;;;;5043801;28;20039;-80
2021/06/03 11:52:17;;;;;;;4.40;4.00;;;28.90;43.40;;;;;;5043369;28;19934;-79
2021/06/03 11:55:12;;;;;;;4.90;4.43;;;29.00;42.90;;;;;;5015971;28;20056;-80
2021/06/03 11:57:38;;;;;;;4.70;4.22;;;28.80;43.00;;;;;;5019755;28;20041;-78
2021/06/03 12:00:07;;;;;;;7.35;5.80;;;28.80;43.30;;;;;;5037398;28;20685;-79
2021/06/03 12:02:40;;;;;;;5.85;4.50;;;28.90;43.40;;;;;;5057373;28;20029;-78
2021/06/03 12:05:09;;;;;;;;;;;29.00;43.80;;;;;;5047880;28;20052;-79
2021/06/03 12:07:48;;;;;;;7.97;4.30;;;29.20;44.10;;;;;;5044195;28;19908;-79
2021/06/03 12:10:19;;;;;;;5.88;4.60;;;29.30;44.00;;;;;;5040037;28;20036;-78
2021/06/03 12:12:45;;;;;;;6.95;4.10;;;29.40;44.10;;;;;;5035358;28;20037;-80
2021/06/03 12:15:22;;;;;;;5.60;4.95;;;29.40;44.20;;;;;;5008612;28;20555;-79
2021/06/03 12:17:53;;;;;;;4.75;3.90;;;29.50;44.20;;;;;;5036208;28;20116;-80
2021/06/03 12:20:19;;;;;;;12.98;5.15;;;29.30;43.70;;;;;;5056544;28;20496;-78
2021/06/03 12:22:45;;;;;;;7.70;6.90;;;29.20;43.60;;;;;;5025161;28;20053;-78
2021/06/03 12:25:11;;;;;;;6.68;5.65;;;29.10;43.50;;;;;;5031162;28;20017;-79
2021/06/03 12:27:40;;;;;;;6.80;5.05;;;29.20;43.80;;;;;;5046692;28;20087;-78
2021/06/03 12:30:21;;;;;;;6.63;4.55;;;29.20;44.20;;;;;;5022498;28;20033;-79
2021/06/03 12:33:08;;;;;;;6.40;4.60;;;29.20;43.70;;;;;;5040930;28;20060;-78
2021/06/03 12:35:36;;;;;;;6.32;4.22;;;29.10;43.00;;;;;;5047949;28;20021;-78
2021/06/03 12:38:03;;;;;;;6.75;4.22;;;29.10;43.30;;;;;;5040606;28;20049;-79
2021/06/03 12:40:30;;;;;;;8.05;4.57;;;29.10;43.50;;;;;;5059280;28;20083;-80
2021/06/03 12:43:21;;;;;;;6.13;3.95;;;29.10;43.80;;;;;;5043278;28;20060;-79
2021/06/03 12:45:47;;;;;;;8.75;4.38;;;29.20;44.20;;;;;;5026418;28;20064;-78
2021/06/03 12:48:15;;;;;;;9.35;5.30;;;29.40;44.70;;;;;;5039080;28;20033;-78
2021/06/03 12:50:45;;;;;;;12.48;5.53;;;29.50;45.30;;;;;;5062980;28;20041;-80
2021/06/03 12:53:16;;;;;;;6.82;4.70;;;29.60;45.20;;;;;;5040501;28;20041;-80
2021/06/03 12:55:43;;;;;;;7.25;4.90;;;29.80;45.40;;;;;;5047353;28;20047;-78
2021/06/03 12:58:12;;;;;;;8.25;5.38;;;29.90;45.20;;;;;;5009053;28;20084;-79
2021/06/03 13:00:40;;;;;;;7.57;5.50;;;29.90;44.90;;;;;;5040244;28;20098;-78
2021/06/03 13:03:12;;;;;;;6.13;4.82;;;30.20;44.90;;;;;;5062964;28;20017;-78
2021/06/03 13:05:38;;;;;;;6.75;4.90;;;30.40;44.70;;;;;;5049190;28;20021;-79
2021/06/03 13:08:04;;;;;;;6.90;4.95;;;30.60;44.40;;;;;;5053174;28;20508;-78
2021/06/03 13:10:29;;;;;;;8.88;4.60;;;30.80;44.20;;;;;;5056871;28;20029;-79
2021/06/03 13:13:00;;;;;;;8.02;4.50;;;30.80;44.00;;;;;;5027011;28;20060;-78
2021/06/03 13:15:26;;;;;;;6.18;4.55;;;30.70;42.90;;;;;;5037343;28;20040;-78
2021/06/03 13:17:55;;;;;;;6.53;4.90;;;30.60;43.40;;;;;;5026691;28;20451;-79
2021/06/03 13:20:25;;;;;;;7.75;4.60;;;30.60;43.90;;;;;;5060090;28;20031;-77